Moyers, Oklahoma
Current Conditions -  °F | °C
As of 9:15 PM on Friday 21 Nov 2014 (Local Time) from KHHW Reporting Station
Overcast Overcast  
Wind Chill: 60°   Ceiling: 1300
Heat Index: 60°   Visibility: 10mi
Dew Point: 57°   Wind: 14mph
Humidity: 90%   Direction: 160°SSE
Pressure: 30.13"   Gusts: 18mph
Location:  34.33°N, 95.65°W
Report Text: KHHW 220315Z AUTO 16012G16KT 10SM BKN013 OVC019 16/14 A3013 RMK AO2 T01580141
Loading
Personal Weather Stations






























Interactive Weather Map New forecast layout! Learn more

10-Day Weather Forecast

Advertisements
Track Severe Weather on mobile